sensor_id;sensor_type;location;lat;lon;timestamp;P1;durP1;ratioP1;P2;durP2;ratioP2
19816;SDS011;68323;49.394;8.434;2023-05-20T00:00:23;5.70;;;2.40;;
19816;SDS011;68323;49.394;8.434;2023-05-20T00:02:49;4.83;;;2.40;;
19816;SDS011;68323;49.394;8.434;2023-05-20T00:05:15;3.30;;;2.43;;
19816;SDS011;68323;49.394;8.434;2023-05-20T00:07:40;5.03;;;2.33;;
19816;SDS011;68323;49.394;8.434;2023-05-20T00:10:06;5.60;;;2.60;;
19816;SDS011;68323;49.394;8.434;2023-05-20T00:12:31;3.70;;;2.40;;
19816;SDS011;68323;49.394;8.434;2023-05-20T00:14:59;6.40;;;2.80;;
19816;SDS011;68323;49.394;8.434;2023-05-20T00:17:25;3.30;;;2.33;;
19816;SDS011;68323;49.394;8.434;2023-05-20T00:19:52;6.83;;;2.60;;
19816;SDS011;68323;49.394;8.434;2023-05-20T00:22:18;5.30;;;2.80;;
19816;SDS011;68323;49.394;8.434;2023-05-20T00:24:43;4.37;;;2.60;;
19816;SDS011;68323;49.394;8.434;2023-05-20T00:27:09;6.00;;;2.77;;
19816;SDS011;68323;49.394;8.434;2023-05-20T00:29:34;3.60;;;2.57;;
19816;SDS011;68323;49.394;8.434;2023-05-20T00:32:00;4.87;;;2.50;;
19816;SDS011;68323;49.394;8.434;2023-05-20T00:34:25;4.23;;;2.57;;
19816;SDS011;68323;49.394;8.434;2023-05-20T00:36:51;8.33;;;2.67;;
19816;SDS011;68323;49.394;8.434;2023-05-20T00:39:16;9.57;;;2.53;;
19816;SDS011;68323;49.394;8.434;2023-05-20T00:41:42;4.23;;;2.40;;
19816;SDS011;68323;49.394;8.434;2023-05-20T00:44:07;3.93;;;2.60;;
19816;SDS011;68323;49.394;8.434;2023-05-20T00:46:34;4.60;;;2.60;;
19816;SDS011;68323;49.394;8.434;2023-05-20T00:48:59;5.23;;;2.83;;
19816;SDS011;68323;49.394;8.434;2023-05-20T00:51:26;6.83;;;2.93;;
19816;SDS011;68323;49.394;8.434;2023-05-20T00:53:51;4.77;;;2.60;;
19816;SDS011;68323;49.394;8.434;2023-05-20T00:56:17;8.33;;;2.53;;
19816;SDS011;68323;49.394;8.434;2023-05-20T00:58:45;4.87;;;2.70;;
19816;SDS011;68323;49.394;8.434;2023-05-20T01:01:11;4.43;;;2.70;;
19816;SDS011;68323;49.394;8.434;2023-05-20T01:03:37;6.37;;;3.00;;
19816;SDS011;68323;49.394;8.434;2023-05-20T01:06:02;7.97;;;2.80;;
19816;SDS011;68323;49.394;8.434;2023-05-20T01:08:28;5.73;;;2.90;;
19816;SDS011;68323;49.394;8.434;2023-05-20T01:10:57;5.27;;;2.97;;
19816;SDS011;68323;49.394;8.434;2023-05-20T01:13:36;6.70;;;3.00;;
19816;SDS011;68323;49.394;8.434;2023-05-20T01:16:07;4.87;;;2.90;;
19816;SDS011;68323;49.394;8.434;2023-05-20T01:18:34;6.03;;;3.17;;
19816;SDS011;68323;49.394;8.434;2023-05-20T01:21:01;7.57;;;3.27;;
19816;SDS011;68323;49.394;8.434;2023-05-20T01:23:37;9.77;;;3.30;;
19816;SDS011;68323;49.394;8.434;2023-05-20T01:26:06;5.23;;;2.90;;
19816;SDS011;68323;49.394;8.434;2023-05-20T01:28:33;4.87;;;2.83;;
19816;SDS011;68323;49.394;8.434;2023-05-20T01:31:00;6.50;;;2.80;;
19816;SDS011;68323;49.394;8.434;2023-05-20T01:33:28;4.70;;;3.17;;
19816;SDS011;68323;49.394;8.434;2023-05-20T01:35:55;6.07;;;2.90;;
19816;SDS011;68323;49.394;8.434;2023-05-20T01:38:22;8.87;;;2.97;;
19816;SDS011;68323;49.394;8.434;2023-05-20T01:40:49;7.60;;;2.80;;
19816;SDS011;68323;49.394;8.434;2023-05-20T01:43:16;7.17;;;2.63;;
19816;SDS011;68323;49.394;8.434;2023-05-20T01:45:42;7.97;;;2.83;;
19816;SDS011;68323;49.394;8.434;2023-05-20T01:48:09;3.87;;;2.90;;
19816;SDS011;68323;49.394;8.434;2023-05-20T01:50:35;5.60;;;2.93;;
19816;SDS011;68323;49.394;8.434;2023-05-20T01:53:04;4.63;;;3.10;;
19816;SDS011;68323;49.394;8.434;2023-05-20T01:55:32;7.27;;;3.27;;
19816;SDS011;68323;49.394;8.434;2023-05-20T01:57:58;5.17;;;3.07;;
19816;SDS011;68323;49.394;8.434;2023-05-20T02:00:23;7.80;;;3.63;;
19816;SDS011;68323;49.394;8.434;2023-05-20T02:02:49;6.77;;;3.40;;
19816;SDS011;68323;49.394;8.434;2023-05-20T02:05:15;6.07;;;3.53;;
19816;SDS011;68323;49.394;8.434;2023-05-20T02:07:40;6.00;;;3.50;;
19816;SDS011;68323;49.394;8.434;2023-05-20T02:10:06;6.17;;;3.60;;
19816;SDS011;68323;49.394;8.434;2023-05-20T02:12:32;5.30;;;3.23;;
19816;SDS011;68323;49.394;8.434;2023-05-20T02:14:57;7.20;;;3.30;;
19816;SDS011;68323;49.394;8.434;2023-05-20T02:17:23;5.10;;;3.43;;
19816;SDS011;68323;49.394;8.434;2023-05-20T02:19:48;10.83;;;4.07;;
19816;SDS011;68323;49.394;8.434;2023-05-20T02:22:14;8.20;;;4.00;;
19816;SDS011;68323;49.394;8.434;2023-05-20T02:24:39;6.60;;;3.60;;
19816;SDS011;68323;49.394;8.434;2023-05-20T02:27:07;7.03;;;3.83;;
19816;SDS011;68323;49.394;8.434;2023-05-20T02:29:32;5.47;;;3.40;;
19816;SDS011;68323;49.394;8.434;2023-05-20T02:31:58;5.73;;;3.70;;
19816;SDS011;68323;49.394;8.434;2023-05-20T02:34:23;10.73;;;3.83;;
19816;SDS011;68323;49.394;8.434;2023-05-20T02:36:50;6.03;;;3.40;;
19816;SDS011;68323;49.394;8.434;2023-05-20T02:39:16;6.40;;;4.03;;
19816;SDS011;68323;49.394;8.434;2023-05-20T02:41:42;8.30;;;3.93;;
19816;SDS011;68323;49.394;8.434;2023-05-20T02:44:07;8.03;;;3.93;;
19816;SDS011;68323;49.394;8.434;2023-05-20T02:46:33;7.30;;;4.07;;
19816;SDS011;68323;49.394;8.434;2023-05-20T02:48:58;8.07;;;4.20;;
19816;SDS011;68323;49.394;8.434;2023-05-20T02:51:24;8.43;;;4.00;;
19816;SDS011;68323;49.394;8.434;2023-05-20T02:53:50;6.93;;;4.13;;
19816;SDS011;68323;49.394;8.434;2023-05-20T02:56:15;5.77;;;4.03;;
19816;SDS011;68323;49.394;8.434;2023-05-20T02:58:45;8.37;;;4.53;;
19816;SDS011;68323;49.394;8.434;2023-05-20T03:01:11;7.63;;;4.00;;
19816;SDS011;68323;49.394;8.434;2023-05-20T03:03:36;6.43;;;4.20;;
19816;SDS011;68323;49.394;8.434;2023-05-20T03:06:02;7.27;;;3.80;;
19816;SDS011;68323;49.394;8.434;2023-05-20T03:08:27;8.20;;;3.80;;
19816;SDS011;68323;49.394;8.434;2023-05-20T03:10:53;7.37;;;4.07;;
19816;SDS011;68323;49.394;8.434;2023-05-20T03:13:19;7.27;;;3.70;;
19816;SDS011;68323;49.394;8.434;2023-05-20T03:15:44;8.10;;;4.07;;
19816;SDS011;68323;49.394;8.434;2023-05-20T03:18:10;7.60;;;4.10;;
19816;SDS011;68323;49.394;8.434;2023-05-20T03:20:37;6.63;;;3.77;;
19816;SDS011;68323;49.394;8.434;2023-05-20T03:23:04;8.23;;;4.13;;
19816;SDS011;68323;49.394;8.434;2023-05-20T03:25:30;6.07;;;3.90;;
19816;SDS011;68323;49.394;8.434;2023-05-20T03:27:56;7.33;;;4.30;;
19816;SDS011;68323;49.394;8.434;2023-05-20T03:30:27;7.90;;;3.87;;
19816;SDS011;68323;49.394;8.434;2023-05-20T03:32:53;14.13;;;4.33;;
19816;SDS011;68323;49.394;8.434;2023-05-20T03:35:21;7.00;;;4.10;;
19816;SDS011;68323;49.394;8.434;2023-05-20T03:37:47;7.23;;;4.20;;
19816;SDS011;68323;49.394;8.434;2023-05-20T03:40:12;6.20;;;4.17;;
19816;SDS011;68323;49.394;8.434;2023-05-20T03:42:38;8.50;;;3.50;;
19816;SDS011;68323;49.394;8.434;2023-05-20T03:45:04;6.03;;;4.00;;
19816;SDS011;68323;49.394;8.434;2023-05-20T03:47:30;8.00;;;4.40;;
19816;SDS011;68323;49.394;8.434;2023-05-20T03:49:56;8.00;;;3.97;;
19816;SDS011;68323;49.394;8.434;2023-05-20T03:52:21;5.80;;;4.20;;
19816;SDS011;68323;49.394;8.434;2023-05-20T03:54:47;8.00;;;4.27;;
19816;SDS011;68323;49.394;8.434;2023-05-20T03:57:12;6.33;;;4.00;;
19816;SDS011;68323;49.394;8.434;2023-05-20T03:59:38;9.37;;;4.10;;
19816;SDS011;68323;49.394;8.434;2023-05-20T04:02:04;8.13;;;4.40;;
19816;SDS011;68323;49.394;8.434;2023-05-20T04:04:30;9.00;;;4.67;;
19816;SDS011;68323;49.394;8.434;2023-05-20T04:06:56;7.13;;;4.50;;
19816;SDS011;68323;49.394;8.434;2023-05-20T04:09:24;9.50;;;4.63;;
19816;SDS011;68323;49.394;8.434;2023-05-20T04:11:50;9.97;;;4.40;;
19816;SDS011;68323;49.394;8.434;2023-05-20T04:14:15;9.60;;;4.93;;
19816;SDS011;68323;49.394;8.434;2023-05-20T04:16:41;5.53;;;3.97;;
19816;SDS011;68323;49.394;8.434;2023-05-20T04:19:07;8.30;;;4.33;;
19816;SDS011;68323;49.394;8.434;2023-05-20T04:21:32;8.00;;;4.23;;
19816;SDS011;68323;49.394;8.434;2023-05-20T04:23:58;7.30;;;4.30;;
19816;SDS011;68323;49.394;8.434;2023-05-20T04:26:24;8.60;;;4.70;;
19816;SDS011;68323;49.394;8.434;2023-05-20T04:28:49;7.27;;;4.60;;
19816;SDS011;68323;49.394;8.434;2023-05-20T04:31:15;11.87;;;4.80;;
19816;SDS011;68323;49.394;8.434;2023-05-20T04:33:40;8.07;;;4.73;;
19816;SDS011;68323;49.394;8.434;2023-05-20T04:36:09;8.70;;;5.00;;
19816;SDS011;68323;49.394;8.434;2023-05-20T04:38:36;8.03;;;4.80;;
19816;SDS011;68323;49.394;8.434;2023-05-20T04:41:02;9.17;;;4.40;;
19816;SDS011;68323;49.394;8.434;2023-05-20T04:43:28;8.17;;;4.97;;
19816;SDS011;68323;49.394;8.434;2023-05-20T04:45:56;6.90;;;4.50;;
19816;SDS011;68323;49.394;8.434;2023-05-20T04:48:22;9.07;;;4.63;;
19816;SDS011;68323;49.394;8.434;2023-05-20T04:50:48;10.03;;;4.47;;
19816;SDS011;68323;49.394;8.434;2023-05-20T04:53:17;7.23;;;4.40;;
19816;SDS011;68323;49.394;8.434;2023-05-20T04:55:44;9.40;;;4.40;;
19816;SDS011;68323;49.394;8.434;2023-05-20T04:58:09;7.63;;;4.43;;
19816;SDS011;68323;49.394;8.434;2023-05-20T05:00:39;7.00;;;4.33;;
19816;SDS011;68323;49.394;8.434;2023-05-20T05:03:06;8.60;;;4.67;;
19816;SDS011;68323;49.394;8.434;2023-05-20T05:05:33;5.73;;;4.23;;
19816;SDS011;68323;49.394;8.434;2023-05-20T05:08:00;6.50;;;4.17;;
19816;SDS011;68323;49.394;8.434;2023-05-20T05:10:27;8.20;;;4.77;;
19816;SDS011;68323;49.394;8.434;2023-05-20T05:12:52;11.33;;;5.17;;
19816;SDS011;68323;49.394;8.434;2023-05-20T05:15:18;7.80;;;5.13;;
19816;SDS011;68323;49.394;8.434;2023-05-20T05:17:43;8.67;;;4.63;;
19816;SDS011;68323;49.394;8.434;2023-05-20T05:20:09;7.93;;;4.33;;
19816;SDS011;68323;49.394;8.434;2023-05-20T05:22:35;9.67;;;5.07;;
19816;SDS011;68323;49.394;8.434;2023-05-20T05:25:01;7.73;;;4.80;;
19816;SDS011;68323;49.394;8.434;2023-05-20T05:27:27;8.43;;;5.00;;
19816;SDS011;68323;49.394;8.434;2023-05-20T05:29:53;9.67;;;4.97;;
19816;SDS011;68323;49.394;8.434;2023-05-20T05:32:18;8.27;;;5.30;;
19816;SDS011;68323;49.394;8.434;2023-05-20T05:34:44;7.83;;;4.93;;
19816;SDS011;68323;49.394;8.434;2023-05-20T05:37:09;10.57;;;4.93;;
19816;SDS011;68323;49.394;8.434;2023-05-20T05:39:35;9.20;;;4.83;;
19816;SDS011;68323;49.394;8.434;2023-05-20T05:42:01;9.47;;;5.00;;
19816;SDS011;68323;49.394;8.434;2023-05-20T05:44:27;6.60;;;4.40;;
19816;SDS011;68323;49.394;8.434;2023-05-20T05:46:53;9.13;;;4.83;;
19816;SDS011;68323;49.394;8.434;2023-05-20T05:49:19;9.27;;;5.17;;
19816;SDS011;68323;49.394;8.434;2023-05-20T05:51:44;9.50;;;5.00;;
19816;SDS011;68323;49.394;8.434;2023-05-20T05:54:10;8.60;;;4.70;;
19816;SDS011;68323;49.394;8.434;2023-05-20T05:56:35;8.77;;;4.87;;
19816;SDS011;68323;49.394;8.434;2023-05-20T05:59:01;7.87;;;4.93;;
19816;SDS011;68323;49.394;8.434;2023-05-20T06:01:26;7.03;;;4.73;;
19816;SDS011;68323;49.394;8.434;2023-05-20T06:03:52;11.43;;;5.17;;
19816;SDS011;68323;49.394;8.434;2023-05-20T06:06:17;11.90;;;5.33;;
19816;SDS011;68323;49.394;8.434;2023-05-20T06:08:43;14.03;;;5.17;;
19816;SDS011;68323;49.394;8.434;2023-05-20T06:11:08;6.20;;;4.33;;
19816;SDS011;68323;49.394;8.434;2023-05-20T06:13:34;9.70;;;4.67;;
19816;SDS011;68323;49.394;8.434;2023-05-20T06:16:00;13.27;;;5.33;;
19816;SDS011;68323;49.394;8.434;2023-05-20T06:18:26;9.37;;;5.07;;
19816;SDS011;68323;49.394;8.434;2023-05-20T06:20:58;11.03;;;5.03;;
19816;SDS011;68323;49.394;8.434;2023-05-20T06:23:24;11.00;;;4.87;;
19816;SDS011;68323;49.394;8.434;2023-05-20T06:25:50;7.30;;;4.60;;
19816;SDS011;68323;49.394;8.434;2023-05-20T06:28:15;8.27;;;5.03;;
19816;SDS011;68323;49.394;8.434;2023-05-20T06:30:41;9.97;;;5.70;;
19816;SDS011;68323;49.394;8.434;2023-05-20T06:33:07;7.87;;;5.27;;
19816;SDS011;68323;49.394;8.434;2023-05-20T06:35:33;15.70;;;5.53;;
19816;SDS011;68323;49.394;8.434;2023-05-20T06:37:59;8.37;;;5.00;;
19816;SDS011;68323;49.394;8.434;2023-05-20T06:40:25;7.93;;;4.87;;
19816;SDS011;68323;49.394;8.434;2023-05-20T06:42:52;12.60;;;5.87;;
19816;SDS011;68323;49.394;8.434;2023-05-20T06:45:17;17.80;;;6.00;;
19816;SDS011;68323;49.394;8.434;2023-05-20T06:47:43;11.33;;;6.47;;
19816;SDS011;68323;49.394;8.434;2023-05-20T06:50:09;11.77;;;5.27;;
19816;SDS011;68323;49.394;8.434;2023-05-20T06:52:35;9.30;;;5.07;;
19816;SDS011;68323;49.394;8.434;2023-05-20T06:55:01;10.47;;;5.30;;
19816;SDS011;68323;49.394;8.434;2023-05-20T06:57:27;7.13;;;4.80;;
19816;SDS011;68323;49.394;8.434;2023-05-20T06:59:53;9.40;;;5.37;;
19816;SDS011;68323;49.394;8.434;2023-05-20T07:02:19;10.40;;;5.00;;
19816;SDS011;68323;49.394;8.434;2023-05-20T07:04:45;15.90;;;5.00;;
19816;SDS011;68323;49.394;8.434;2023-05-20T07:07:11;13.10;;;5.10;;
19816;SDS011;68323;49.394;8.434;2023-05-20T07:09:36;11.20;;;4.87;;
19816;SDS011;68323;49.394;8.434;2023-05-20T07:12:02;7.13;;;4.43;;
19816;SDS011;68323;49.394;8.434;2023-05-20T07:14:27;9.95;;;4.55;;
19816;SDS011;68323;49.394;8.434;2023-05-20T07:16:53;6.90;;;4.32;;
19816;SDS011;68323;49.394;8.434;2023-05-20T07:19:19;7.97;;;4.00;;
19816;SDS011;68323;49.394;8.434;2023-05-20T07:21:44;6.43;;;4.00;;
19816;SDS011;68323;49.394;8.434;2023-05-20T07:24:10;13.25;;;3.70;;
19816;SDS011;68323;49.394;8.434;2023-05-20T07:26:35;5.30;;;3.80;;
19816;SDS011;68323;49.394;8.434;2023-05-20T07:29:04;7.10;;;3.97;;
19816;SDS011;68323;49.394;8.434;2023-05-20T07:31:30;4.60;;;3.90;;
19816;SDS011;68323;49.394;8.434;2023-05-20T07:33:56;5.63;;;4.03;;
19816;SDS011;68323;49.394;8.434;2023-05-20T07:36:21;6.13;;;4.10;;
19816;SDS011;68323;49.394;8.434;2023-05-20T07:38:47;6.57;;;3.95;;
19816;SDS011;68323;49.394;8.434;2023-05-20T07:41:12;6.10;;;3.72;;
19816;SDS011;68323;49.394;8.434;2023-05-20T07:43:38;7.07;;;4.40;;
19816;SDS011;68323;49.394;8.434;2023-05-20T07:46:04;8.10;;;4.00;;
19816;SDS011;68323;49.394;8.434;2023-05-20T07:48:29;4.18;;;3.67;;
19816;SDS011;68323;49.394;8.434;2023-05-20T07:50:55;5.57;;;3.90;;
19816;SDS011;68323;49.394;8.434;2023-05-20T07:53:26;5.90;;;3.70;;
19816;SDS011;68323;49.394;8.434;2023-05-20T07:55:52;7.03;;;4.22;;
19816;SDS011;68323;49.394;8.434;2023-05-20T07:58:17;6.93;;;3.90;;
19816;SDS011;68323;49.394;8.434;2023-05-20T08:00:43;6.88;;;4.10;;
19816;SDS011;68323;49.394;8.434;2023-05-20T08:03:09;6.07;;;3.55;;
19816;SDS011;68323;49.394;8.434;2023-05-20T08:05:35;6.07;;;3.90;;
19816;SDS011;68323;49.394;8.434;2023-05-20T08:08:02;4.70;;;3.63;;
19816;SDS011;68323;49.394;8.434;2023-05-20T08:10:28;4.80;;;3.70;;
19816;SDS011;68323;49.394;8.434;2023-05-20T08:12:53;4.88;;;3.85;;
19816;SDS011;68323;49.394;8.434;2023-05-20T08:15:19;6.85;;;4.07;;
19816;SDS011;68323;49.394;8.434;2023-05-20T08:17:44;5.20;;;3.90;;
19816;SDS011;68323;49.394;8.434;2023-05-20T08:20:10;4.93;;;3.92;;
19816;SDS011;68323;49.394;8.434;2023-05-20T08:22:36;5.07;;;3.70;;
19816;SDS011;68323;49.394;8.434;2023-05-20T08:25:02;7.70;;;4.35;;
19816;SDS011;68323;49.394;8.434;2023-05-20T08:27:28;7.38;;;4.50;;
19816;SDS011;68323;49.394;8.434;2023-05-20T08:29:54;7.45;;;3.75;;
19816;SDS011;68323;49.394;8.434;2023-05-20T08:32:20;5.00;;;4.10;;
19816;SDS011;68323;49.394;8.434;2023-05-20T08:34:45;7.07;;;4.32;;
19816;SDS011;68323;49.394;8.434;2023-05-20T08:37:13;3.92;;;3.53;;
19816;SDS011;68323;49.394;8.434;2023-05-20T08:39:38;5.75;;;3.95;;
19816;SDS011;68323;49.394;8.434;2023-05-20T08:42:04;5.00;;;4.20;;
19816;SDS011;68323;49.394;8.434;2023-05-20T08:44:31;5.82;;;3.65;;
19816;SDS011;68323;49.394;8.434;2023-05-20T08:46:58;5.63;;;3.97;;
19816;SDS011;68323;49.394;8.434;2023-05-20T08:49:25;6.80;;;4.40;;
19816;SDS011;68323;49.394;8.434;2023-05-20T08:51:50;6.13;;;4.18;;
19816;SDS011;68323;49.394;8.434;2023-05-20T08:54:16;9.60;;;3.90;;
19816;SDS011;68323;49.394;8.434;2023-05-20T08:56:43;5.72;;;4.30;;
19816;SDS011;68323;49.394;8.434;2023-05-20T08:59:08;6.72;;;5.00;;
19816;SDS011;68323;49.394;8.434;2023-05-20T09:01:42;10.20;;;4.85;;
19816;SDS011;68323;49.394;8.434;2023-05-20T09:04:08;7.15;;;4.60;;
19816;SDS011;68323;49.394;8.434;2023-05-20T09:07:06;7.35;;;4.40;;
19816;SDS011;68323;49.394;8.434;2023-05-20T09:09:25;19.67;;;4.88;;
19816;SDS011;68323;49.394;8.434;2023-05-20T09:11:51;8.10;;;4.57;;
19816;SDS011;68323;49.394;8.434;2023-05-20T09:14:16;12.90;;;4.53;;
19816;SDS011;68323;49.394;8.434;2023-05-20T09:16:42;16.45;;;5.00;;
19816;SDS011;68323;49.394;8.434;2023-05-20T09:19:08;7.32;;;4.50;;
19816;SDS011;68323;49.394;8.434;2023-05-20T09:21:34;6.97;;;4.32;;
19816;SDS011;68323;49.394;8.434;2023-05-20T09:24:03;20.80;;;5.82;;
19816;SDS011;68323;49.394;8.434;2023-05-20T09:26:28;16.88;;;5.60;;
19816;SDS011;68323;49.394;8.434;2023-05-20T09:28:55;5.57;;;4.70;;
19816;SDS011;68323;49.394;8.434;2023-05-20T09:31:24;6.72;;;4.10;;
19816;SDS011;68323;49.394;8.434;2023-05-20T09:33:55;5.57;;;4.63;;
19816;SDS011;68323;49.394;8.434;2023-05-20T09:36:24;5.53;;;4.75;;
19816;SDS011;68323;49.394;8.434;2023-05-20T09:38:52;5.05;;;4.15;;
19816;SDS011;68323;49.394;8.434;2023-05-20T09:41:21;6.03;;;4.50;;
19816;SDS011;68323;49.394;8.434;2023-05-20T09:43:53;10.85;;;4.35;;
19816;SDS011;68323;49.394;8.434;2023-05-20T09:46:19;10.20;;;4.60;;
19816;SDS011;68323;49.394;8.434;2023-05-20T09:48:45;10.68;;;4.93;;
19816;SDS011;68323;49.394;8.434;2023-05-20T09:51:11;10.75;;;4.78;;
19816;SDS011;68323;49.394;8.434;2023-05-20T09:53:37;9.98;;;4.20;;
19816;SDS011;68323;49.394;8.434;2023-05-20T09:56:03;6.13;;;4.18;;
19816;SDS011;68323;49.394;8.434;2023-05-20T09:58:29;5.13;;;4.63;;
19816;SDS011;68323;49.394;8.434;2023-05-20T10:00:55;5.43;;;4.28;;
19816;SDS011;68323;49.394;8.434;2023-05-20T10:03:20;4.97;;;4.10;;
19816;SDS011;68323;49.394;8.434;2023-05-20T10:06:09;6.50;;;4.45;;
19816;SDS011;68323;49.394;8.434;2023-05-20T10:16:59;5.97;;;4.18;;
19816;SDS011;68323;49.394;8.434;2023-05-20T10:19:33;6.32;;;4.22;;
19816;SDS011;68323;49.394;8.434;2023-05-20T10:22:00;5.53;;;4.93;;
19816;SDS011;68323;49.394;8.434;2023-05-20T10:24:41;8.43;;;5.13;;
19816;SDS011;68323;49.394;8.434;2023-05-20T10:27:11;5.88;;;4.40;;
19816;SDS011;68323;49.394;8.434;2023-05-20T10:32:27;8.63;;;4.70;;
19816;SDS011;68323;49.394;8.434;2023-05-20T10:35:06;6.47;;;4.90;;
19816;SDS011;68323;49.394;8.434;2023-05-20T10:37:40;5.50;;;4.50;;
19816;SDS011;68323;49.394;8.434;2023-05-20T10:42:35;7.00;;;4.70;;
19816;SDS011;68323;49.394;8.434;2023-05-20T10:45:01;12.75;;;4.90;;
19816;SDS011;68323;49.394;8.434;2023-05-20T10:47:27;8.00;;;4.93;;
19816;SDS011;68323;49.394;8.434;2023-05-20T10:49:53;9.25;;;5.32;;
19816;SDS011;68323;49.394;8.434;2023-05-20T10:52:19;7.57;;;5.50;;
19816;SDS011;68323;49.394;8.434;2023-05-20T10:54:46;6.00;;;4.90;;
19816;SDS011;68323;49.394;8.434;2023-05-20T10:57:12;8.10;;;4.75;;
19816;SDS011;68323;49.394;8.434;2023-05-20T10:59:38;10.20;;;5.20;;
19816;SDS011;68323;49.394;8.434;2023-05-20T11:02:05;6.35;;;4.78;;
19816;SDS011;68323;49.394;8.434;2023-05-20T11:04:33;8.93;;;5.30;;
19816;SDS011;68323;49.394;8.434;2023-05-20T11:06:59;6.70;;;4.85;;
19816;SDS011;68323;49.394;8.434;2023-05-20T11:09:24;9.57;;;5.25;;
19816;SDS011;68323;49.394;8.434;2023-05-20T11:11:50;6.13;;;4.70;;
19816;SDS011;68323;49.394;8.434;2023-05-20T11:14:17;7.00;;;5.10;;
19816;SDS011;68323;49.394;8.434;2023-05-20T11:16:44;6.15;;;4.93;;
19816;SDS011;68323;49.394;8.434;2023-05-20T11:19:13;7.78;;;5.13;;
19816;SDS011;68323;49.394;8.434;2023-05-20T11:21:44;8.20;;;5.20;;
19816;SDS011;68323;49.394;8.434;2023-05-20T11:24:10;9.32;;;5.53;;
19816;SDS011;68323;49.394;8.434;2023-05-20T11:26:36;6.60;;;5.30;;
19816;SDS011;68323;49.394;8.434;2023-05-20T11:29:03;8.57;;;5.50;;
19816;SDS011;68323;49.394;8.434;2023-05-20T11:31:28;8.57;;;5.60;;
19816;SDS011;68323;49.394;8.434;2023-05-20T11:33:55;6.35;;;5.20;;
19816;SDS011;68323;49.394;8.434;2023-05-20T11:36:23;6.57;;;5.15;;
19816;SDS011;68323;49.394;8.434;2023-05-20T11:38:48;6.60;;;5.00;;
19816;SDS011;68323;49.394;8.434;2023-05-20T11:41:16;6.45;;;5.10;;
19816;SDS011;68323;49.394;8.434;2023-05-20T11:43:41;6.95;;;5.70;;
19816;SDS011;68323;49.394;8.434;2023-05-20T11:46:07;7.57;;;5.03;;
19816;SDS011;68323;49.394;8.434;2023-05-20T11:48:33;7.10;;;5.47;;
19816;SDS011;68323;49.394;8.434;2023-05-20T11:50:59;5.70;;;5.13;;
19816;SDS011;68323;49.394;8.434;2023-05-20T11:53:26;9.10;;;5.50;;
19816;SDS011;68323;49.394;8.434;2023-05-20T11:55:56;9.25;;;5.78;;
19816;SDS011;68323;49.394;8.434;2023-05-20T11:58:33;7.97;;;5.20;;
19816;SDS011;68323;49.394;8.434;2023-05-20T12:00:58;5.45;;;4.95;;
19816;SDS011;68323;49.394;8.434;2023-05-20T12:03:24;10.10;;;5.35;;
19816;SDS011;68323;49.394;8.434;2023-05-20T12:05:49;6.07;;;5.47;;
19816;SDS011;68323;49.394;8.434;2023-05-20T12:08:16;6.38;;;5.38;;
19816;SDS011;68323;49.394;8.434;2023-05-20T12:10:42;8.57;;;5.40;;
19816;SDS011;68323;49.394;8.434;2023-05-20T12:13:08;6.78;;;5.20;;
19816;SDS011;68323;49.394;8.434;2023-05-20T12:15:35;6.28;;;5.65;;
19816;SDS011;68323;49.394;8.434;2023-05-20T12:18:01;7.00;;;5.20;;
19816;SDS011;68323;49.394;8.434;2023-05-20T12:20:26;6.85;;;5.38;;
19816;SDS011;68323;49.394;8.434;2023-05-20T12:22:52;7.03;;;5.20;;
19816;SDS011;68323;49.394;8.434;2023-05-20T12:25:18;6.65;;;5.10;;
19816;SDS011;68323;49.394;8.434;2023-05-20T12:27:45;5.82;;;5.20;;
19816;SDS011;68323;49.394;8.434;2023-05-20T12:30:13;7.28;;;5.40;;
19816;SDS011;68323;49.394;8.434;2023-05-20T12:32:40;10.18;;;5.53;;
19816;SDS011;68323;49.394;8.434;2023-05-20T12:35:07;7.10;;;5.50;;
19816;SDS011;68323;49.394;8.434;2023-05-20T12:37:33;6.43;;;5.40;;
19816;SDS011;68323;49.394;8.434;2023-05-20T12:40:00;6.35;;;5.18;;
19816;SDS011;68323;49.394;8.434;2023-05-20T12:42:25;9.25;;;5.45;;
19816;SDS011;68323;49.394;8.434;2023-05-20T12:44:51;8.13;;;5.43;;
19816;SDS011;68323;49.394;8.434;2023-05-20T12:47:17;7.72;;;5.35;;
19816;SDS011;68323;49.394;8.434;2023-05-20T12:49:44;6.25;;;5.45;;
19816;SDS011;68323;49.394;8.434;2023-05-20T12:52:09;6.75;;;5.22;;
19816;SDS011;68323;49.394;8.434;2023-05-20T12:54:35;8.00;;;5.35;;
19816;SDS011;68323;49.394;8.434;2023-05-20T12:57:00;7.55;;;5.88;;
19816;SDS011;68323;49.394;8.434;2023-05-20T12:59:28;7.43;;;5.55;;
19816;SDS011;68323;49.394;8.434;2023-05-20T13:01:53;6.75;;;5.68;;
19816;SDS011;68323;49.394;8.434;2023-05-20T13:04:19;7.55;;;5.40;;
19816;SDS011;68323;49.394;8.434;2023-05-20T13:06:44;9.23;;;5.65;;
19816;SDS011;68323;49.394;8.434;2023-05-20T13:09:10;7.93;;;5.70;;
19816;SDS011;68323;49.394;8.434;2023-05-20T13:11:36;8.40;;;5.55;;
19816;SDS011;68323;49.394;8.434;2023-05-20T13:14:01;10.93;;;5.40;;
19816;SDS011;68323;49.394;8.434;2023-05-20T13:16:27;6.20;;;5.60;;
19816;SDS011;68323;49.394;8.434;2023-05-20T13:18:52;7.13;;;5.75;;
19816;SDS011;68323;49.394;8.434;2023-05-20T13:21:18;9.18;;;5.65;;
19816;SDS011;68323;49.394;8.434;2023-05-20T13:23:44;10.15;;;5.43;;
19816;SDS011;68323;49.394;8.434;2023-05-20T13:26:09;8.07;;;5.60;;
19816;SDS011;68323;49.394;8.434;2023-05-20T13:28:35;8.02;;;5.60;;
19816;SDS011;68323;49.394;8.434;2023-05-20T13:31:01;7.13;;;5.55;;
19816;SDS011;68323;49.394;8.434;2023-05-20T13:33:28;8.30;;;5.78;;
19816;SDS011;68323;49.394;8.434;2023-05-20T13:35:54;8.18;;;5.72;;
19816;SDS011;68323;49.394;8.434;2023-05-20T13:38:20;7.63;;;5.47;;
19816;SDS011;68323;49.394;8.434;2023-05-20T13:40:45;6.38;;;5.13;;
19816;SDS011;68323;49.394;8.434;2023-05-20T13:43:11;8.55;;;5.78;;
19816;SDS011;68323;49.394;8.434;2023-05-20T13:45:36;9.57;;;5.47;;
19816;SDS011;68323;49.394;8.434;2023-05-20T13:48:02;6.57;;;5.60;;
19816;SDS011;68323;49.394;8.434;2023-05-20T13:50:27;6.35;;;5.75;;
19816;SDS011;68323;49.394;8.434;2023-05-20T13:52:53;7.13;;;5.60;;
19816;SDS011;68323;49.394;8.434;2023-05-20T13:55:18;6.47;;;5.72;;
19816;SDS011;68323;49.394;8.434;2023-05-20T13:57:44;8.27;;;5.50;;
19816;SDS011;68323;49.394;8.434;2023-05-20T14:00:10;6.75;;;5.72;;
19816;SDS011;68323;49.394;8.434;2023-05-20T14:02:36;7.80;;;5.55;;
19816;SDS011;68323;49.394;8.434;2023-05-20T14:05:01;7.53;;;5.53;;
19816;SDS011;68323;49.394;8.434;2023-05-20T14:07:27;6.25;;;5.30;;
19816;SDS011;68323;49.394;8.434;2023-05-20T14:09:53;15.93;;;5.80;;
19816;SDS011;68323;49.394;8.434;2023-05-20T14:12:18;7.68;;;5.22;;
19816;SDS011;68323;49.394;8.434;2023-05-20T14:14:44;7.53;;;5.45;;
19816;SDS011;68323;49.394;8.434;2023-05-20T14:17:09;9.18;;;5.57;;
19816;SDS011;68323;49.394;8.434;2023-05-20T14:19:35;7.07;;;5.70;;
19816;SDS011;68323;49.394;8.434;2023-05-20T14:22:01;7.72;;;5.85;;
19816;SDS011;68323;49.394;8.434;2023-05-20T14:24:27;9.30;;;5.57;;
19816;SDS011;68323;49.394;8.434;2023-05-20T14:26:53;7.78;;;5.90;;
19816;SDS011;68323;49.394;8.434;2023-05-20T14:29:18;8.27;;;5.93;;
19816;SDS011;68323;49.394;8.434;2023-05-20T14:31:44;5.90;;;5.30;;
19816;SDS011;68323;49.394;8.434;2023-05-20T14:34:10;6.47;;;5.57;;
19816;SDS011;68323;49.394;8.434;2023-05-20T14:36:35;7.35;;;5.93;;
19816;SDS011;68323;49.394;8.434;2023-05-20T14:39:01;11.15;;;5.93;;
19816;SDS011;68323;49.394;8.434;2023-05-20T14:41:27;12.13;;;6.18;;
19816;SDS011;68323;49.394;8.434;2023-05-20T14:43:53;8.48;;;5.55;;
19816;SDS011;68323;49.394;8.434;2023-05-20T14:46:19;10.48;;;6.20;;
19816;SDS011;68323;49.394;8.434;2023-05-20T14:48:44;8.55;;;6.03;;
19816;SDS011;68323;49.394;8.434;2023-05-20T14:51:11;8.10;;;5.95;;
19816;SDS011;68323;49.394;8.434;2023-05-20T14:53:36;7.90;;;5.80;;